sensor_id;sensor_type;location;lat;lon;timestamp;temperature;humidity
15556;DHT22;7879;48.660;9.116;2022-10-31T00:01:10;10.10;99.90
15556;DHT22;7879;48.660;9.116;2022-10-31T00:03:37;10.10;99.90
15556;DHT22;7879;48.660;9.116;2022-10-31T00:06:03;10.10;99.90
15556;DHT22;7879;48.660;9.116;2022-10-31T00:08:30;10.00;99.90
15556;DHT22;7879;48.660;9.116;2022-10-31T00:10:56;10.00;99.90
15556;DHT22;7879;48.660;9.116;2022-10-31T00:13:23;10.00;99.90
15556;DHT22;7879;48.660;9.116;2022-10-31T00:15:50;10.00;99.90
15556;DHT22;7879;48.660;9.116;2022-10-31T00:18:16;10.00;99.90
15556;DHT22;7879;48.660;9.116;2022-10-31T00:20:43;9.90;99.90
15556;DHT22;7879;48.660;9.116;2022-10-31T00:23:11;9.90;99.90
15556;DHT22;7879;48.660;9.116;2022-10-31T00:25:39;9.90;99.90
15556;DHT22;7879;48.660;9.116;2022-10-31T00:28:07;9.90;99.90
15556;DHT22;7879;48.660;9.116;2022-10-31T00:30:35;9.90;99.90
15556;DHT22;7879;48.660;9.116;2022-10-31T00:33:03;9.80;99.90
15556;DHT22;7879;48.660;9.116;2022-10-31T00:35:31;9.70;99.90
15556;DHT22;7879;48.660;9.116;2022-10-31T00:37:58;9.70;99.90
15556;DHT22;7879;48.660;9.116;2022-10-31T00:40:24;9.70;99.90
15556;DHT22;7879;48.660;9.116;2022-10-31T00:42:51;9.70;99.90
15556;DHT22;7879;48.660;9.116;2022-10-31T00:45:18;9.60;99.90
15556;DHT22;7879;48.660;9.116;2022-10-31T00:47:45;9.60;99.90
15556;DHT22;7879;48.660;9.116;2022-10-31T00:50:11;9.70;99.90
15556;DHT22;7879;48.660;9.116;2022-10-31T00:52:38;9.60;99.90
15556;DHT22;7879;48.660;9.116;2022-10-31T00:55:05;9.50;99.90
15556;DHT22;7879;48.660;9.116;2022-10-31T00:57:31;9.50;99.90
15556;DHT22;7879;48.660;9.116;2022-10-31T00:59:58;9.50;99.90
15556;DHT22;7879;48.660;9.116;2022-10-31T01:02:25;9.50;99.90
15556;DHT22;7879;48.660;9.116;2022-10-31T01:04:52;9.40;99.90
15556;DHT22;7879;48.660;9.116;2022-10-31T01:07:18;9.40;99.90
15556;DHT22;7879;48.660;9.116;2022-10-31T01:09:45;9.40;99.90
15556;DHT22;7879;48.660;9.116;2022-10-31T01:12:12;9.30;99.90
15556;DHT22;7879;48.660;9.116;2022-10-31T01:14:41;9.30;99.90
15556;DHT22;7879;48.660;9.116;2022-10-31T01:17:08;9.30;99.90
15556;DHT22;7879;48.660;9.116;2022-10-31T01:19:35;9.30;99.90
15556;DHT22;7879;48.660;9.116;2022-10-31T01:22:01;9.30;99.90
15556;DHT22;7879;48.660;9.116;2022-10-31T01:24:28;9.20;99.90
15556;DHT22;7879;48.660;9.116;2022-10-31T01:26:54;9.20;99.90
15556;DHT22;7879;48.660;9.116;2022-10-31T01:29:21;9.20;99.90
15556;DHT22;7879;48.660;9.116;2022-10-31T01:31:48;9.20;99.90
15556;DHT22;7879;48.660;9.116;2022-10-31T01:34:16;9.10;99.90
15556;DHT22;7879;48.660;9.116;2022-10-31T01:36:44;9.10;99.90
15556;DHT22;7879;48.660;9.116;2022-10-31T01:39:14;9.20;99.90
15556;DHT22;7879;48.660;9.116;2022-10-31T01:41:45;9.10;99.90
15556;DHT22;7879;48.660;9.116;2022-10-31T01:46:48;9.00;99.90
15556;DHT22;7879;48.660;9.116;2022-10-31T01:49:31;9.00;99.90
15556;DHT22;7879;48.660;9.116;2022-10-31T01:54:34;9.00;99.90
15556;DHT22;7879;48.660;9.116;2022-10-31T01:57:03;9.00;99.90
15556;DHT22;7879;48.660;9.116;2022-10-31T01:59:35;9.10;99.90
15556;DHT22;7879;48.660;9.116;2022-10-31T02:02:02;9.00;99.90
15556;DHT22;7879;48.660;9.116;2022-10-31T02:04:29;8.90;99.90
15556;DHT22;7879;48.660;9.116;2022-10-31T02:07:03;9.00;99.90
15556;DHT22;7879;48.660;9.116;2022-10-31T02:09:31;9.00;99.90
15556;DHT22;7879;48.660;9.116;2022-10-31T02:12:00;9.00;99.90
15556;DHT22;7879;48.660;9.116;2022-10-31T02:14:29;8.90;99.90
15556;DHT22;7879;48.660;9.116;2022-10-31T02:16:57;8.80;99.90
15556;DHT22;7879;48.660;9.116;2022-10-31T02:19:35;8.90;99.90
15556;DHT22;7879;48.660;9.116;2022-10-31T02:22:43;8.90;99.90
15556;DHT22;7879;48.660;9.116;2022-10-31T02:33:53;8.80;99.90
15556;DHT22;7879;48.660;9.116;2022-10-31T02:42:07;8.60;99.90
15556;DHT22;7879;48.660;9.116;2022-10-31T02:44:39;8.60;99.90
15556;DHT22;7879;48.660;9.116;2022-10-31T02:47:19;8.60;99.90
15556;DHT22;7879;48.660;9.116;2022-10-31T02:50:12;8.60;99.90
15556;DHT22;7879;48.660;9.116;2022-10-31T02:52:40;8.60;99.90
15556;DHT22;7879;48.660;9.116;2022-10-31T02:58:12;8.60;99.90
15556;DHT22;7879;48.660;9.116;2022-10-31T03:06:20;8.40;99.90
15556;DHT22;7879;48.660;9.116;2022-10-31T03:09:16;8.40;99.90
15556;DHT22;7879;48.660;9.116;2022-10-31T03:12:17;8.40;99.90
15556;DHT22;7879;48.660;9.116;2022-10-31T03:15:00;8.30;99.90
15556;DHT22;7879;48.660;9.116;2022-10-31T03:17:36;8.30;99.90
15556;DHT22;7879;48.660;9.116;2022-10-31T03:20:06;8.30;99.90
15556;DHT22;7879;48.660;9.116;2022-10-31T03:22:33;8.20;99.90
15556;DHT22;7879;48.660;9.116;2022-10-31T03:25:02;8.20;99.90
15556;DHT22;7879;48.660;9.116;2022-10-31T03:27:32;8.20;99.90
15556;DHT22;7879;48.660;9.116;2022-10-31T03:30:04;8.20;99.90
15556;DHT22;7879;48.660;9.116;2022-10-31T03:32:53;8.20;99.90
15556;DHT22;7879;48.660;9.116;2022-10-31T03:35:23;8.10;99.90
15556;DHT22;7879;48.660;9.116;2022-10-31T03:37:52;8.10;99.90
15556;DHT22;7879;48.660;9.116;2022-10-31T03:40:21;8.10;99.90
15556;DHT22;7879;48.660;9.116;2022-10-31T03:42:59;8.10;99.90
15556;DHT22;7879;48.660;9.116;2022-10-31T03:45:30;8.10;99.90
15556;DHT22;7879;48.660;9.116;2022-10-31T03:47:58;8.10;99.90
15556;DHT22;7879;48.660;9.116;2022-10-31T03:50:31;8.00;99.90
15556;DHT22;7879;48.660;9.116;2022-10-31T03:53:11;8.00;99.90
15556;DHT22;7879;48.660;9.116;2022-10-31T03:55:52;8.00;99.90
15556;DHT22;7879;48.660;9.116;2022-10-31T03:58:27;8.00;99.90
15556;DHT22;7879;48.660;9.116;2022-10-31T04:00:55;8.00;99.90
15556;DHT22;7879;48.660;9.116;2022-10-31T04:03:30;7.90;99.90
15556;DHT22;7879;48.660;9.116;2022-10-31T04:06:01;7.90;99.90
15556;DHT22;7879;48.660;9.116;2022-10-31T04:08:31;7.90;99.90
15556;DHT22;7879;48.660;9.116;2022-10-31T04:11:00;8.00;99.90
15556;DHT22;7879;48.660;9.116;2022-10-31T04:13:29;8.00;99.90
15556;DHT22;7879;48.660;9.116;2022-10-31T04:15:57;7.90;99.90
15556;DHT22;7879;48.660;9.116;2022-10-31T04:18:25;7.90;99.90
15556;DHT22;7879;48.660;9.116;2022-10-31T04:21:04;7.90;99.90
15556;DHT22;7879;48.660;9.116;2022-10-31T04:23:32;7.80;99.90
15556;DHT22;7879;48.660;9.116;2022-10-31T04:25:59;7.80;99.90
15556;DHT22;7879;48.660;9.116;2022-10-31T04:28:26;7.80;99.90
15556;DHT22;7879;48.660;9.116;2022-10-31T04:30:53;7.80;99.90
15556;DHT22;7879;48.660;9.116;2022-10-31T04:33:20;7.80;99.90
15556;DHT22;7879;48.660;9.116;2022-10-31T04:35:47;7.80;99.90
15556;DHT22;7879;48.660;9.116;2022-10-31T04:38:14;7.70;99.90
15556;DHT22;7879;48.660;9.116;2022-10-31T04:40:40;7.70;99.90
15556;DHT22;7879;48.660;9.116;2022-10-31T04:43:07;7.70;99.90
15556;DHT22;7879;48.660;9.116;2022-10-31T04:45:33;7.70;99.90
15556;DHT22;7879;48.660;9.116;2022-10-31T04:48:00;7.60;99.90
15556;DHT22;7879;48.660;9.116;2022-10-31T04:50:27;7.60;99.90
15556;DHT22;7879;48.660;9.116;2022-10-31T04:52:57;7.60;99.90
15556;DHT22;7879;48.660;9.116;2022-10-31T04:55:24;7.60;99.90
15556;DHT22;7879;48.660;9.116;2022-10-31T04:57:51;7.60;99.90
15556;DHT22;7879;48.660;9.116;2022-10-31T05:00:19;7.50;99.90
15556;DHT22;7879;48.660;9.116;2022-10-31T05:02:56;7.50;99.90
15556;DHT22;7879;48.660;9.116;2022-10-31T05:05:29;7.40;99.90
15556;DHT22;7879;48.660;9.116;2022-10-31T05:07:56;7.50;99.90
15556;DHT22;7879;48.660;9.116;2022-10-31T05:10:25;7.50;99.90
15556;DHT22;7879;48.660;9.116;2022-10-31T05:12:54;7.50;99.90
15556;DHT22;7879;48.660;9.116;2022-10-31T05:15:22;7.50;99.90
15556;DHT22;7879;48.660;9.116;2022-10-31T05:17:49;7.50;99.90
15556;DHT22;7879;48.660;9.116;2022-10-31T05:20:18;7.40;99.90
15556;DHT22;7879;48.660;9.116;2022-10-31T05:22:50;7.40;99.90
15556;DHT22;7879;48.660;9.116;2022-10-31T05:25:18;7.30;99.90
15556;DHT22;7879;48.660;9.116;2022-10-31T05:27:47;7.30;99.90
15556;DHT22;7879;48.660;9.116;2022-10-31T05:30:18;7.30;99.90
15556;DHT22;7879;48.660;9.116;2022-10-31T05:32:47;7.30;99.90
15556;DHT22;7879;48.660;9.116;2022-10-31T05:35:17;7.30;99.90
15556;DHT22;7879;48.660;9.116;2022-10-31T05:37:44;7.30;99.90
15556;DHT22;7879;48.660;9.116;2022-10-31T05:40:13;7.20;99.90
15556;DHT22;7879;48.660;9.116;2022-10-31T05:42:41;7.20;99.90
15556;DHT22;7879;48.660;9.116;2022-10-31T05:45:16;7.20;99.90
15556;DHT22;7879;48.660;9.116;2022-10-31T05:47:55;7.20;99.90
15556;DHT22;7879;48.660;9.116;2022-10-31T05:50:24;7.10;99.90
15556;DHT22;7879;48.660;9.116;2022-10-31T05:52:56;7.10;99.90
15556;DHT22;7879;48.660;9.116;2022-10-31T05:55:23;7.20;99.90
15556;DHT22;7879;48.660;9.116;2022-10-31T05:57:52;7.00;99.90
15556;DHT22;7879;48.660;9.116;2022-10-31T06:00:19;7.00;99.90
15556;DHT22;7879;48.660;9.116;2022-10-31T06:02:46;7.00;99.90
15556;DHT22;7879;48.660;9.116;2022-10-31T06:05:13;7.00;99.90
15556;DHT22;7879;48.660;9.116;2022-10-31T06:07:40;7.00;99.90
15556;DHT22;7879;48.660;9.116;2022-10-31T06:10:08;7.00;99.90
15556;DHT22;7879;48.660;9.116;2022-10-31T06:12:36;7.00;99.90
15556;DHT22;7879;48.660;9.116;2022-10-31T06:15:08;7.10;99.90
15556;DHT22;7879;48.660;9.116;2022-10-31T06:17:35;7.10;99.90
15556;DHT22;7879;48.660;9.116;2022-10-31T06:20:03;7.10;99.90
15556;DHT22;7879;48.660;9.116;2022-10-31T06:22:30;7.00;99.90
15556;DHT22;7879;48.660;9.116;2022-10-31T06:24:57;6.90;99.90
15556;DHT22;7879;48.660;9.116;2022-10-31T06:27:24;7.00;99.90
15556;DHT22;7879;48.660;9.116;2022-10-31T06:29:51;6.90;99.90
15556;DHT22;7879;48.660;9.116;2022-10-31T06:32:18;7.00;99.90
15556;DHT22;7879;48.660;9.116;2022-10-31T06:34:45;7.00;99.90
15556;DHT22;7879;48.660;9.116;2022-10-31T06:37:14;7.00;99.90
15556;DHT22;7879;48.660;9.116;2022-10-31T06:39:41;6.90;99.90
15556;DHT22;7879;48.660;9.116;2022-10-31T06:42:08;7.00;99.90
15556;DHT22;7879;48.660;9.116;2022-10-31T06:44:34;7.00;99.90
15556;DHT22;7879;48.660;9.116;2022-10-31T06:47:01;7.00;99.90
15556;DHT22;7879;48.660;9.116;2022-10-31T06:49:27;6.90;99.90
15556;DHT22;7879;48.660;9.116;2022-10-31T06:51:54;7.00;99.90
15556;DHT22;7879;48.660;9.116;2022-10-31T06:54:21;7.00;99.90
15556;DHT22;7879;48.660;9.116;2022-10-31T06:56:48;7.00;99.90
15556;DHT22;7879;48.660;9.116;2022-10-31T06:59:15;7.00;99.90
15556;DHT22;7879;48.660;9.116;2022-10-31T07:01:42;7.00;99.90
15556;DHT22;7879;48.660;9.116;2022-10-31T07:04:10;7.10;99.90
15556;DHT22;7879;48.660;9.116;2022-10-31T07:06:36;7.20;99.90
15556;DHT22;7879;48.660;9.116;2022-10-31T07:09:03;7.30;99.90
15556;DHT22;7879;48.660;9.116;2022-10-31T07:11:30;7.20;99.90
15556;DHT22;7879;48.660;9.116;2022-10-31T07:13:57;7.20;99.90
15556;DHT22;7879;48.660;9.116;2022-10-31T07:16:23;7.30;99.90
15556;DHT22;7879;48.660;9.116;2022-10-31T07:18:50;7.30;99.90
15556;DHT22;7879;48.660;9.116;2022-10-31T07:21:17;7.40;99.90
15556;DHT22;7879;48.660;9.116;2022-10-31T07:23:43;7.40;99.90
15556;DHT22;7879;48.660;9.116;2022-10-31T07:26:10;7.50;99.90
15556;DHT22;7879;48.660;9.116;2022-10-31T07:28:37;7.50;99.90
15556;DHT22;7879;48.660;9.116;2022-10-31T07:31:03;7.60;99.90
15556;DHT22;7879;48.660;9.116;2022-10-31T07:33:30;7.60;99.90
15556;DHT22;7879;48.660;9.116;2022-10-31T07:35:56;7.60;99.90
15556;DHT22;7879;48.660;9.116;2022-10-31T07:38:23;7.60;99.90
15556;DHT22;7879;48.660;9.116;2022-10-31T07:40:51;7.70;99.90
15556;DHT22;7879;48.660;9.116;2022-10-31T07:43:19;7.70;99.90
15556;DHT22;7879;48.660;9.116;2022-10-31T07:45:53;7.70;99.90
15556;DHT22;7879;48.660;9.116;2022-10-31T07:48:21;7.80;99.90
15556;DHT22;7879;48.660;9.116;2022-10-31T07:50:47;7.80;99.90
15556;DHT22;7879;48.660;9.116;2022-10-31T07:53:15;7.90;99.90
15556;DHT22;7879;48.660;9.116;2022-10-31T07:55:42;8.00;99.90
15556;DHT22;7879;48.660;9.116;2022-10-31T07:58:11;8.00;99.90
15556;DHT22;7879;48.660;9.116;2022-10-31T08:00:40;8.00;99.90
15556;DHT22;7879;48.660;9.116;2022-10-31T08:03:12;8.10;99.90
15556;DHT22;7879;48.660;9.116;2022-10-31T08:05:39;8.20;99.90
15556;DHT22;7879;48.660;9.116;2022-10-31T08:08:08;8.30;99.90
15556;DHT22;7879;48.660;9.116;2022-10-31T08:10:35;8.30;99.90
15556;DHT22;7879;48.660;9.116;2022-10-31T08:13:07;8.30;99.90
15556;DHT22;7879;48.660;9.116;2022-10-31T08:15:34;8.40;99.90
15556;DHT22;7879;48.660;9.116;2022-10-31T08:18:05;8.50;99.90
15556;DHT22;7879;48.660;9.116;2022-10-31T08:20:31;8.60;99.90
15556;DHT22;7879;48.660;9.116;2022-10-31T08:23:02;8.60;99.90
15556;DHT22;7879;48.660;9.116;2022-10-31T08:25:31;8.70;99.90
15556;DHT22;7879;48.660;9.116;2022-10-31T08:28:04;8.80;99.90
15556;DHT22;7879;48.660;9.116;2022-10-31T08:30:33;8.90;99.90
15556;DHT22;7879;48.660;9.116;2022-10-31T08:33:11;8.90;99.90
15556;DHT22;7879;48.660;9.116;2022-10-31T08:35:38;9.10;99.90
15556;DHT22;7879;48.660;9.116;2022-10-31T08:38:05;9.10;99.90
15556;DHT22;7879;48.660;9.116;2022-10-31T08:40:34;9.20;99.90
15556;DHT22;7879;48.660;9.116;2022-10-31T08:43:04;9.30;99.90
15556;DHT22;7879;48.660;9.116;2022-10-31T08:45:32;9.30;99.90
15556;DHT22;7879;48.660;9.116;2022-10-31T08:48:01;9.50;99.90
15556;DHT22;7879;48.660;9.116;2022-10-31T08:50:30;9.60;99.90
15556;DHT22;7879;48.660;9.116;2022-10-31T08:53:07;9.60;99.90
15556;DHT22;7879;48.660;9.116;2022-10-31T08:55:36;9.70;99.90
15556;DHT22;7879;48.660;9.116;2022-10-31T08:58:05;9.80;99.90
15556;DHT22;7879;48.660;9.116;2022-10-31T09:00:33;9.90;99.90
15556;DHT22;7879;48.660;9.116;2022-10-31T09:03:03;10.00;99.90
15556;DHT22;7879;48.660;9.116;2022-10-31T09:05:30;10.00;99.90
15556;DHT22;7879;48.660;9.116;2022-10-31T09:07:58;10.10;99.90
15556;DHT22;7879;48.660;9.116;2022-10-31T09:10:27;10.20;99.90
15556;DHT22;7879;48.660;9.116;2022-10-31T09:13:09;10.20;99.90
15556;DHT22;7879;48.660;9.116;2022-10-31T09:15:38;10.30;99.90
15556;DHT22;7879;48.660;9.116;2022-10-31T09:18:06;10.40;99.90
15556;DHT22;7879;48.660;9.116;2022-10-31T09:20:34;10.40;99.90
15556;DHT22;7879;48.660;9.116;2022-10-31T09:23:03;10.50;99.90
15556;DHT22;7879;48.660;9.116;2022-10-31T09:25:32;10.50;99.90
15556;DHT22;7879;48.660;9.116;2022-10-31T09:28:00;10.60;99.90
15556;DHT22;7879;48.660;9.116;2022-10-31T09:30:30;10.70;99.90
15556;DHT22;7879;48.660;9.116;2022-10-31T09:32:59;10.80;99.90
15556;DHT22;7879;48.660;9.116;2022-10-31T09:35:27;10.90;99.90
15556;DHT22;7879;48.660;9.116;2022-10-31T09:37:58;10.90;99.90
15556;DHT22;7879;48.660;9.116;2022-10-31T09:40:39;11.10;99.90
15556;DHT22;7879;48.660;9.116;2022-10-31T09:51:10;11.60;99.90
15556;DHT22;7879;48.660;9.116;2022-10-31T09:53:47;11.80;99.90
15556;DHT22;7879;48.660;9.116;2022-10-31T09:56:18;11.80;99.90
15556;DHT22;7879;48.660;9.116;2022-10-31T09:58:48;11.90;99.90
15556;DHT22;7879;48.660;9.116;2022-10-31T10:01:47;12.00;99.90
15556;DHT22;7879;48.660;9.116;2022-10-31T10:06:47;12.20;99.90
15556;DHT22;7879;48.660;9.116;2022-10-31T10:09:17;12.30;99.90
15556;DHT22;7879;48.660;9.116;2022-10-31T10:12:08;12.30;99.90
15556;DHT22;7879;48.660;9.116;2022-10-31T10:17:41;12.60;99.90
15556;DHT22;7879;48.660;9.116;2022-10-31T10:20:30;12.60;99.90
15556;DHT22;7879;48.660;9.116;2022-10-31T10:25:44;12.90;99.90
15556;DHT22;7879;48.660;9.116;2022-10-31T10:30:59;13.10;99.90
15556;DHT22;7879;48.660;9.116;2022-10-31T10:33:39;13.20;99.90
15556;DHT22;7879;48.660;9.116;2022-10-31T10:36:17;13.30;99.90
15556;DHT22;7879;48.660;9.116;2022-10-31T10:38:52;13.30;99.90
15556;DHT22;7879;48.660;9.116;2022-10-31T10:41:22;13.30;99.90
15556;DHT22;7879;48.660;9.116;2022-10-31T10:43:50;13.40;99.90
15556;DHT22;7879;48.660;9.116;2022-10-31T10:46:19;13.40;99.90
15556;DHT22;7879;48.660;9.116;2022-10-31T10:49:21;13.40;99.90
15556;DHT22;7879;48.660;9.116;2022-10-31T10:57:26;13.50;99.90
15556;DHT22;7879;48.660;9.116;2022-10-31T10:59:55;13.60;99.90
15556;DHT22;7879;48.660;9.116;2022-10-31T11:02:24;13.60;99.90
15556;DHT22;7879;48.660;9.116;2022-10-31T11:04:58;13.70;99.90
15556;DHT22;7879;48.660;9.116;2022-10-31T11:07:39;13.90;99.90
15556;DHT22;7879;48.660;9.116;2022-10-31T11:10:11;14.10;99.90
15556;DHT22;7879;48.660;9.116;2022-10-31T11:12:42;14.30;99.90
15556;DHT22;7879;48.660;9.116;2022-10-31T11:15:22;14.50;99.90
15556;DHT22;7879;48.660;9.116;2022-10-31T11:17:51;14.70;99.90
15556;DHT22;7879;48.660;9.116;2022-10-31T11:22:47;14.90;99.90
15556;DHT22;7879;48.660;9.116;2022-10-31T11:25:25;15.00;99.90
15556;DHT22;7879;48.660;9.116;2022-10-31T11:28:18;15.10;99.90
15556;DHT22;7879;48.660;9.116;2022-10-31T11:30:47;15.20;99.90
15556;DHT22;7879;48.660;9.116;2022-10-31T11:33:25;15.30;99.90
15556;DHT22;7879;48.660;9.116;2022-10-31T11:35:53;15.40;99.90
15556;DHT22;7879;48.660;9.116;2022-10-31T11:38:30;15.50;99.90
15556;DHT22;7879;48.660;9.116;2022-10-31T11:41:16;15.50;99.90
15556;DHT22;7879;48.660;9.116;2022-10-31T11:43:50;15.50;99.90
15556;DHT22;7879;48.660;9.116;2022-10-31T11:46:23;15.50;99.90
15556;DHT22;7879;48.660;9.116;2022-10-31T11:48:52;15.60;99.90
15556;DHT22;7879;48.660;9.116;2022-10-31T11:51:23;15.60;99.90
15556;DHT22;7879;48.660;9.116;2022-10-31T11:53:52;15.60;99.90
15556;DHT22;7879;48.660;9.116;2022-10-31T11:56:27;15.60;99.90
15556;DHT22;7879;48.660;9.116;2022-10-31T11:58:55;15.60;99.90
15556;DHT22;7879;48.660;9.116;2022-10-31T12:01:30;15.60;99.90
15556;DHT22;7879;48.660;9.116;2022-10-31T12:04:12;15.60;99.90
15556;DHT22;7879;48.660;9.116;2022-10-31T12:06:41;15.60;99.90
15556;DHT22;7879;48.660;9.116;2022-10-31T12:09:19;15.60;99.90
15556;DHT22;7879;48.660;9.116;2022-10-31T12:19:57;15.80;99.90
15556;DHT22;7879;48.660;9.116;2022-10-31T12:28:42;15.90;99.90
15556;DHT22;7879;48.660;9.116;2022-10-31T12:42:16;15.90;99.90
15556;DHT22;7879;48.660;9.116;2022-10-31T12:51:08;15.90;99.90
15556;DHT22;7879;48.660;9.116;2022-10-31T12:56:55;15.90;99.90
15556;DHT22;7879;48.660;9.116;2022-10-31T13:10:52;15.90;99.90
15556;DHT22;7879;48.660;9.116;2022-10-31T13:13:26;15.90;99.90
15556;DHT22;7879;48.660;9.116;2022-10-31T13:15:57;15.90;99.90
15556;DHT22;7879;48.660;9.116;2022-10-31T13:18:32;16.00;99.90
15556;DHT22;7879;48.660;9.116;2022-10-31T13:21:03;16.00;99.90
15556;DHT22;7879;48.660;9.116;2022-10-31T13:23:34;16.00;99.90
15556;DHT22;7879;48.660;9.116;2022-10-31T13:26:47;16.10;99.90
15556;DHT22;7879;48.660;9.116;2022-10-31T13:29:13;16.10;99.90
15556;DHT22;7879;48.660;9.116;2022-10-31T13:31:42;16.20;99.90
15556;DHT22;7879;48.660;9.116;2022-10-31T13:34:23;16.20;99.90
15556;DHT22;7879;48.660;9.116;2022-10-31T13:40:14;16.40;99.90
15556;DHT22;7879;48.660;9.116;2022-10-31T13:45:30;16.50;99.90
15556;DHT22;7879;48.660;9.116;2022-10-31T13:50:42;16.50;99.90
15556;DHT22;7879;48.660;9.116;2022-10-31T13:53:19;16.50;99.90
15556;DHT22;7879;48.660;9.116;2022-10-31T13:56:02;16.50;99.90
15556;DHT22;7879;48.660;9.116;2022-10-31T13:58:30;16.60;99.90
15556;DHT22;7879;48.660;9.116;2022-10-31T14:03:38;16.50;99.90
15556;DHT22;7879;48.660;9.116;2022-10-31T14:09:27;16.50;99.90
15556;DHT22;7879;48.660;9.116;2022-10-31T14:11:55;16.50;99.90
15556;DHT22;7879;48.660;9.116;2022-10-31T14:14:29;16.60;99.90
15556;DHT22;7879;48.660;9.116;2022-10-31T14:16:57;16.60;99.90
15556;DHT22;7879;48.660;9.116;2022-10-31T14:19:26;16.60;99.90
15556;DHT22;7879;48.660;9.116;2022-10-31T14:21:53;16.60;99.90
15556;DHT22;7879;48.660;9.116;2022-10-31T14:27:00;16.60;99.90
15556;DHT22;7879;48.660;9.116;2022-10-31T14:29:30;16.70;99.90
15556;DHT22;7879;48.660;9.116;2022-10-31T14:31:59;16.60;99.90
15556;DHT22;7879;48.660;9.116;2022-10-31T14:40:52;16.50;99.90
15556;DHT22;7879;48.660;9.116;2022-10-31T14:51:47;16.40;99.90
15556;DHT22;7879;48.660;9.116;2022-10-31T14:54:26;16.40;99.90
15556;DHT22;7879;48.660;9.116;2022-10-31T14:56:56;16.40;99.90
15556;DHT22;7879;48.660;9.116;2022-10-31T14:59:30;16.40;99.90
15556;DHT22;7879;48.660;9.116;2022-10-31T15:02:01;16.50;99.90
15556;DHT22;7879;48.660;9.116;2022-10-31T15:04:30;16.40;99.90
15556;DHT22;7879;48.660;9.116;2022-10-31T15:07:18;16.40;99.90
15556;DHT22;7879;48.660;9.116;2022-10-31T15:12:48;16.40;99.90
15556;DHT22;7879;48.660;9.116;2022-10-31T15:15:23;16.30;99.90
15556;DHT22;7879;48.660;9.116;2022-10-31T15:18:00;16.30;99.90
15556;DHT22;7879;48.660;9.116;2022-10-31T15:20:36;16.20;99.90
15556;DHT22;7879;48.660;9.116;2022-10-31T15:23:04;16.10;99.90
15556;DHT22;7879;48.660;9.116;2022-10-31T15:25:35;16.00;99.90
15556;DHT22;7879;48.660;9.116;2022-10-31T15:28:13;15.90;99.90
15556;DHT22;7879;48.660;9.116;2022-10-31T15:30:50;15.80;99.90
15556;DHT22;7879;48.660;9.116;2022-10-31T15:33:26;15.70;99.90
15556;DHT22;7879;48.660;9.116;2022-10-31T15:35:57;15.70;99.90
15556;DHT22;7879;48.660;9.116;2022-10-31T15:38:25;15.60;99.90
15556;DHT22;7879;48.660;9.116;2022-10-31T15:40:56;15.60;99.90
15556;DHT22;7879;48.660;9.116;2022-10-31T15:43:23;15.50;99.90
15556;DHT22;7879;48.660;9.116;2022-10-31T15:45:50;15.40;99.90
15556;DHT22;7879;48.660;9.116;2022-10-31T15:48:19;15.30;99.90
15556;DHT22;7879;48.660;9.116;2022-10-31T15:50:54;15.30;99.90
15556;DHT22;7879;48.660;9.116;2022-10-31T15:53:25;15.20;99.90
15556;DHT22;7879;48.660;9.116;2022-10-31T15:55:56;15.20;99.90
15556;DHT22;7879;48.660;9.116;2022-10-31T15:58:24;15.20;99.90
15556;DHT22;7879;48.660;9.116;2022-10-31T16:01:03;15.10;99.90
15556;DHT22;7879;48.660;9.116;2022-10-31T16:03:32;15.10;99.90
15556;DHT22;7879;48.660;9.116;2022-10-31T16:06:01;15.00;99.90
15556;DHT22;7879;48.660;9.116;2022-10-31T16:10:57;15.00;99.90
15556;DHT22;7879;48.660;9.116;2022-10-31T16:13:37;14.90;99.90
15556;DHT22;7879;48.660;9.116;2022-10-31T16:16:12;14.80;99.90
15556;DHT22;7879;48.660;9.116;2022-10-31T16:19:01;14.80;99.90
15556;DHT22;7879;48.660;9.116;2022-10-31T16:21:36;14.70;99.90
15556;DHT22;7879;48.660;9.116;2022-10-31T16:24:19;14.70;99.90
15556;DHT22;7879;48.660;9.116;2022-10-31T16:26:50;14.60;99.90
15556;DHT22;7879;48.660;9.116;2022-10-31T16:29:47;14.60;99.90
15556;DHT22;7879;48.660;9.116;2022-10-31T16:32:56;14.60;99.90
15556;DHT22;7879;48.660;9.116;2022-10-31T16:35:26;14.60;99.90
15556;DHT22;7879;48.660;9.116;2022-10-31T16:37:53;14.60;99.90
15556;DHT22;7879;48.660;9.116;2022-10-31T16:40:20;14.50;99.90
15556;DHT22;7879;48.660;9.116;2022-10-31T16:42:47;14.40;99.90
15556;DHT22;7879;48.660;9.116;2022-10-31T16:45:30;14.40;99.90
15556;DHT22;7879;48.660;9.116;2022-10-31T16:48:08;14.20;99.90
15556;DHT22;7879;48.660;9.116;2022-10-31T16:50:37;14.10;99.90
15556;DHT22;7879;48.660;9.116;2022-10-31T16:53:04;14.10;99.90
15556;DHT22;7879;48.660;9.116;2022-10-31T16:55:59;14.10;99.90
15556;DHT22;7879;48.660;9.116;2022-10-31T16:58:29;14.10;99.90
15556;DHT22;7879;48.660;9.116;2022-10-31T17:00:56;14.10;99.90
15556;DHT22;7879;48.660;9.116;2022-10-31T17:03:23;13.90;99.90
15556;DHT22;7879;48.660;9.116;2022-10-31T17:05:50;13.90;99.90
15556;DHT22;7879;48.660;9.116;2022-10-31T17:08:16;13.90;99.90
15556;DHT22;7879;48.660;9.116;2022-10-31T17:10:44;14.00;99.90
15556;DHT22;7879;48.660;9.116;2022-10-31T17:13:16;13.90;99.90
15556;DHT22;7879;48.660;9.116;2022-10-31T17:15:53;13.80;99.90
15556;DHT22;7879;48.660;9.116;2022-10-31T17:18:24;13.80;99.90
15556;DHT22;7879;48.660;9.116;2022-10-31T17:21:02;13.60;99.90
15556;DHT22;7879;48.660;9.116;2022-10-31T17:23:29;13.60;99.90
15556;DHT22;7879;48.660;9.116;2022-10-31T17:25:56;13.60;99.90
15556;DHT22;7879;48.660;9.116;2022-10-31T17:28:23;13.50;99.90
15556;DHT22;7879;48.660;9.116;2022-10-31T17:30:53;13.40;99.90
15556;DHT22;7879;48.660;9.116;2022-10-31T17:33:21;13.40;99.90
15556;DHT22;7879;48.660;9.116;2022-10-31T17:35:48;13.30;99.90
15556;DHT22;7879;48.660;9.116;2022-10-31T17:38:15;13.20;99.90
15556;DHT22;7879;48.660;9.116;2022-10-31T17:40:42;13.00;99.90
15556;DHT22;7879;48.660;9.116;2022-10-31T17:43:09;13.00;99.90
15556;DHT22;7879;48.660;9.116;2022-10-31T17:45:39;12.90;99.90
15556;DHT22;7879;48.660;9.116;2022-10-31T17:48:06;12.90;99.90
15556;DHT22;7879;48.660;9.116;2022-10-31T17:50:33;12.90;99.90
15556;DHT22;7879;48.660;9.116;2022-10-31T17:53:00;12.90;99.90
15556;DHT22;7879;48.660;9.116;2022-10-31T17:55:27;12.90;99.90
15556;DHT22;7879;48.660;9.116;2022-10-31T17:58:03;12.80;99.90
15556;DHT22;7879;48.660;9.116;2022-10-31T18:00:29;12.70;99.90
15556;DHT22;7879;48.660;9.116;2022-10-31T18:02:56;12.70;99.90
15556;DHT22;7879;48.660;9.116;2022-10-31T18:05:23;12.60;99.90
15556;DHT22;7879;48.660;9.116;2022-10-31T18:07:50;12.50;99.90
15556;DHT22;7879;48.660;9.116;2022-10-31T18:10:16;12.50;99.90
15556;DHT22;7879;48.660;9.116;2022-10-31T18:12:43;12.40;99.90
15556;DHT22;7879;48.660;9.116;2022-10-31T18:15:10;12.30;99.90
15556;DHT22;7879;48.660;9.116;2022-10-31T18:17:37;12.30;99.90
15556;DHT22;7879;48.660;9.116;2022-10-31T18:20:08;12.20;99.90
15556;DHT22;7879;48.660;9.116;2022-10-31T18:22:35;12.20;99.90
15556;DHT22;7879;48.660;9.116;2022-10-31T18:25:02;12.10;99.90
15556;DHT22;7879;48.660;9.116;2022-10-31T18:27:29;12.20;99.90
15556;DHT22;7879;48.660;9.116;2022-10-31T18:29:56;12.20;99.90
15556;DHT22;7879;48.660;9.116;2022-10-31T18:32:23;12.20;99.90
15556;DHT22;7879;48.660;9.116;2022-10-31T18:34:49;12.20;99.90
15556;DHT22;7879;48.660;9.116;2022-10-31T18:37:16;12.10;99.90